sensor_id;sensor_type;location;lat;lon;timestamp;P1;P2;P0
82821;PMS5003;72574;46.842;-71.246;2023-12-22T00:00:34;5.27;4.55;3
82821;PMS5003;72574;46.842;-71.246;2023-12-22T00:03:01;6.86;6.33;3.67
82821;PMS5003;72574;46.842;-71.246;2023-12-22T00:05:25;10.1;8.9;6.71
82821;PMS5003;72574;46.842;-71.246;2023-12-22T00:07:52;7.48;7.48;6.38
82821;PMS5003;72574;46.842;-71.246;2023-12-22T00:10:15;18.71;9.71;6.1
82821;PMS5003;72574;46.842;-71.246;2023-12-22T00:12:40;11;8.81;6
82821;PMS5003;72574;46.842;-71.246;2023-12-22T00:15:07;5.1;3.9;2.24
82821;PMS5003;72574;46.842;-71.246;2023-12-22T00:17:34;8.82;8.82;5.82
82821;PMS5003;72574;46.842;-71.246;2023-12-22T00:20:00;6.52;6.38;3.52
82821;PMS5003;72574;46.842;-71.246;2023-12-22T00:22:24;6.33;5.05;3
82821;PMS5003;72574;46.842;-71.246;2023-12-22T00:24:51;5.48;5.29;3.43
82821;PMS5003;72574;46.842;-71.246;2023-12-22T00:27:15;4.52;3.67;3
82821;PMS5003;72574;46.842;-71.246;2023-12-22T00:29:41;7.14;5.52;3
82821;PMS5003;72574;46.842;-71.246;2023-12-22T00:32:07;7.1;6.81;5.33
82821;PMS5003;72574;46.842;-71.246;2023-12-22T00:34:34;6.5;5.82;3
82821;PMS5003;72574;46.842;-71.246;2023-12-22T00:36:56;4.43;3.24;2.9
82821;PMS5003;72574;46.842;-71.246;2023-12-22T00:39:24;7.19;7;4
82821;PMS5003;72574;46.842;-71.246;2023-12-22T00:41:48;10.14;6.81;3.81
82821;PMS5003;72574;46.842;-71.246;2023-12-22T00:44:14;3.62;3.05;3
82821;PMS5003;72574;46.842;-71.246;2023-12-22T00:46:41;6.19;4.19;3.24
82821;PMS5003;72574;46.842;-71.246;2023-12-22T00:49:04;8.52;6.52;4.76
82821;PMS5003;72574;46.842;-71.246;2023-12-22T00:51:32;6.81;5.05;3.38
82821;PMS5003;72574;46.842;-71.246;2023-12-22T00:53:56;4.19;3.38;2.62
82821;PMS5003;72574;46.842;-71.246;2023-12-22T00:56:24;8.05;6.38;1.76
82821;PMS5003;72574;46.842;-71.246;2023-12-22T00:58:47;4.95;3.71;2.24
82821;PMS5003;72574;46.842;-71.246;2023-12-22T01:01:14;5.9;5.9;3
82821;PMS5003;72574;46.842;-71.246;2023-12-22T01:03:40;6.5;4;3
82821;PMS5003;72574;46.842;-71.246;2023-12-22T01:06:04;7.1;6.65;3.2
82821;PMS5003;72574;46.842;-71.246;2023-12-22T01:08:30;6.24;6;3.67
82821;PMS5003;72574;46.842;-71.246;2023-12-22T01:10:57;5.5;5.5;3.4
82821;PMS5003;72574;46.842;-71.246;2023-12-22T01:13:20;8.2;5.7;4.75
82821;PMS5003;72574;46.842;-71.246;2023-12-22T01:15:46;4.2;4;3
82821;PMS5003;72574;46.842;-71.246;2023-12-22T01:18:13;3.95;3.95;1.7
82821;PMS5003;72574;46.842;-71.246;2023-12-22T01:20:39;4.76;3.95;2.62
82821;PMS5003;72574;46.842;-71.246;2023-12-22T01:23:05;6.45;6;3.75
82821;PMS5003;72574;46.842;-71.246;2023-12-22T01:25:30;8.52;7.48;3.48
82821;PMS5003;72574;46.842;-71.246;2023-12-22T01:27:54;11.3;8.1;4.5
82821;PMS5003;72574;46.842;-71.246;2023-12-22T01:30:22;12.05;11.55;6.5
82821;PMS5003;72574;46.842;-71.246;2023-12-22T01:32:46;9.65;6.6;4.1
82821;PMS5003;72574;46.842;-71.246;2023-12-22T01:35:10;6.25;4;3
82821;PMS5003;72574;46.842;-71.246;2023-12-22T01:37:37;6.25;5.2;3
82821;PMS5003;72574;46.842;-71.246;2023-12-22T01:40:01;6.6;5.9;3.7
82821;PMS5003;72574;46.842;-71.246;2023-12-22T01:42:28;6.38;6;3
82821;PMS5003;72574;46.842;-71.246;2023-12-22T01:44:54;3.75;3.35;1.7
82821;PMS5003;72574;46.842;-71.246;2023-12-22T01:47:18;5.2;3.85;1.1
82821;PMS5003;72574;46.842;-71.246;2023-12-22T01:49:45;8.1;4.2;3
82821;PMS5003;72574;46.842;-71.246;2023-12-22T01:52:09;6.5;5.4;3.65
82821;PMS5003;72574;46.842;-71.246;2023-12-22T01:54:36;7;7;4
82821;PMS5003;72574;46.842;-71.246;2023-12-22T01:57:00;10.2;7.95;3.5
82821;PMS5003;72574;46.842;-71.246;2023-12-22T01:59:28;6.95;6.95;4
82821;PMS5003;72574;46.842;-71.246;2023-12-22T02:01:52;9.1;8.5;5.8
82821;PMS5003;72574;46.842;-71.246;2023-12-22T02:04:16;14.05;11.3;5
82821;PMS5003;72574;46.842;-71.246;2023-12-22T02:06:44;9;6.35;3.75
82821;PMS5003;72574;46.842;-71.246;2023-12-22T02:09:09;8.3;6.75;3.8
82821;PMS5003;72574;46.842;-71.246;2023-12-22T02:11:33;7.7;6.2;4
82821;PMS5003;72574;46.842;-71.246;2023-12-22T02:13:59;7.1;6.2;3.55
82821;PMS5003;72574;46.842;-71.246;2023-12-22T02:16:31;6.52;5.43;3.19
82821;PMS5003;72574;46.842;-71.246;2023-12-22T02:18:52;11.15;6.8;4.95
82821;PMS5003;72574;46.842;-71.246;2023-12-22T02:21:18;7;7;6
82821;PMS5003;72574;46.842;-71.246;2023-12-22T02:23:41;12.45;9.6;6.45
82821;PMS5003;72574;46.842;-71.246;2023-12-22T02:26:10;11.8;8.5;3.35
82821;PMS5003;72574;46.842;-71.246;2023-12-22T02:28:31;7.15;6.4;5
82821;PMS5003;72574;46.842;-71.246;2023-12-22T02:30:59;5.5;3.5;2.5
82821;PMS5003;72574;46.842;-71.246;2023-12-22T02:33:24;6.24;4.29;2.33
82821;PMS5003;72574;46.842;-71.246;2023-12-22T02:35:51;2.8;2.2;1.05
82821;PMS5003;72574;46.842;-71.246;2023-12-22T02:38:15;6.75;5.05;1.9
82821;PMS5003;72574;46.842;-71.246;2023-12-22T02:40:40;7.7;4;2.8
82821;PMS5003;72574;46.842;-71.246;2023-12-22T02:43:06;9;6.1;3.5
82821;PMS5003;72574;46.842;-71.246;2023-12-22T02:45:31;6.55;5.9;1.1
82821;PMS5003;72574;46.842;-71.246;2023-12-22T02:47:57;9.55;6.25;3
82821;PMS5003;72574;46.842;-71.246;2023-12-22T02:50:23;6.62;6.62;3.57
82821;PMS5003;72574;46.842;-71.246;2023-12-22T02:52:49;6.1;4.4;3.2
82821;PMS5003;72574;46.842;-71.246;2023-12-22T02:55:12;9.8;7.7;3.6
82821;PMS5003;72574;46.842;-71.246;2023-12-22T02:57:39;7.95;7.95;4
82821;PMS5003;72574;46.842;-71.246;2023-12-22T03:00:05;12.6;10.15;6.8
82821;PMS5003;72574;46.842;-71.246;2023-12-22T03:02:28;8.4;8.4;6.15
82821;PMS5003;72574;46.842;-71.246;2023-12-22T03:04:54;9.1;7.1;4
82821;PMS5003;72574;46.842;-71.246;2023-12-22T03:07:20;6.24;4.67;3.1
82821;PMS5003;72574;46.842;-71.246;2023-12-22T03:09:48;9.45;6.8;3.65
82821;PMS5003;72574;46.842;-71.246;2023-12-22T03:12:12;8.65;6.85;3
82821;PMS5003;72574;46.842;-71.246;2023-12-22T03:14:36;9.7;6.95;3.9
82821;PMS5003;72574;46.842;-71.246;2023-12-22T03:17:03;7.65;6.6;3.5
82821;PMS5003;72574;46.842;-71.246;2023-12-22T03:19:27;4.2;4.2;3.55
82821;PMS5003;72574;46.842;-71.246;2023-12-22T03:21:54;7.45;6.35;3.65
82821;PMS5003;72574;46.842;-71.246;2023-12-22T03:24:20;7.67;6.67;4
82821;PMS5003;72574;46.842;-71.246;2023-12-22T03:26:44;4.75;4.5;3.5
82821;PMS5003;72574;46.842;-71.246;2023-12-22T03:29:09;6.9;6;4
82821;PMS5003;72574;46.842;-71.246;2023-12-22T03:31:35;5;5;2.8
82821;PMS5003;72574;46.842;-71.246;2023-12-22T03:34:01;4;4;3
82821;PMS5003;72574;46.842;-71.246;2023-12-22T03:36:27;8.95;7;3.65
82821;PMS5003;72574;46.842;-71.246;2023-12-22T03:38:51;6.5;6.5;5.6
82821;PMS5003;72574;46.842;-71.246;2023-12-22T03:41:17;5.81;5.81;3.9
82821;PMS5003;72574;46.842;-71.246;2023-12-22T03:43:43;9.55;8.7;4.35
82821;PMS5003;72574;46.842;-71.246;2023-12-22T03:46:09;8.6;6.75;3
82821;PMS5003;72574;46.842;-71.246;2023-12-22T03:48:35;9.9;7.7;5
82821;PMS5003;72574;46.842;-71.246;2023-12-22T03:50:58;8.3;7.5;4.7
82821;PMS5003;72574;46.842;-71.246;2023-12-22T03:53:23;16.7;10.7;6.25
82821;PMS5003;72574;46.842;-71.246;2023-12-22T03:55:49;16.8;13.1;8
82821;PMS5003;72574;46.842;-71.246;2023-12-22T03:58:15;18.14;15.52;7.43
82821;PMS5003;72574;46.842;-71.246;2023-12-22T04:00:41;21.65;15.9;9.1
82821;PMS5003;72574;46.842;-71.246;2023-12-22T04:03:07;28.05;24.21;12.16
82821;PMS5003;72574;46.842;-71.246;2023-12-22T04:05:31;15.15;13.35;9
82821;PMS5003;72574;46.842;-71.246;2023-12-22T04:07:56;21.55;16.85;7.2
82821;PMS5003;72574;46.842;-71.246;2023-12-22T04:10:23;9.75;8.8;4.2
82821;PMS5003;72574;46.842;-71.246;2023-12-22T04:12:46;9.1;6.5;3.8
82821;PMS5003;72574;46.842;-71.246;2023-12-22T04:15:13;9.57;8.52;4.19
82821;PMS5003;72574;46.842;-71.246;2023-12-22T04:17:38;13.1;8.4;4.2
82821;PMS5003;72574;46.842;-71.246;2023-12-22T04:20:05;14.75;7.9;6
82821;PMS5003;72574;46.842;-71.246;2023-12-22T04:22:31;14.55;8.55;5.4
82821;PMS5003;72574;46.842;-71.246;2023-12-22T04:24:57;9.9;7.48;4.1
82821;PMS5003;72574;46.842;-71.246;2023-12-22T04:27:20;8.6;8.3;4.7
82821;PMS5003;72574;46.842;-71.246;2023-12-22T04:29:46;7.1;7;4
82821;PMS5003;72574;46.842;-71.246;2023-12-22T04:32:13;7.67;6;3.95
82821;PMS5003;72574;46.842;-71.246;2023-12-22T04:34:38;6.9;6.2;3.8
82821;PMS5003;72574;46.842;-71.246;2023-12-22T04:37:04;7.15;5.25;2.35
82821;PMS5003;72574;46.842;-71.246;2023-12-22T04:39:30;7.1;5.2;2.9
82821;PMS5003;72574;46.842;-71.246;2023-12-22T04:41:55;6.5;5.8;3
82821;PMS5003;72574;46.842;-71.246;2023-12-22T04:44:18;6.85;5.55;3.65
82821;PMS5003;72574;46.842;-71.246;2023-12-22T04:46:44;3.8;3.65;1.7
82821;PMS5003;72574;46.842;-71.246;2023-12-22T04:49:11;6.76;6.1;3.43
82821;PMS5003;72574;46.842;-71.246;2023-12-22T04:51:37;5.6;5.6;3.1
82821;PMS5003;72574;46.842;-71.246;2023-12-22T04:54:03;11.75;6.9;3.35
82821;PMS5003;72574;46.842;-71.246;2023-12-22T04:56:28;6.8;5.2;2.65
82821;PMS5003;72574;46.842;-71.246;2023-12-22T04:58:51;6;4.6;3.3
82821;PMS5003;72574;46.842;-71.246;2023-12-22T05:01:19;7.2;6.75;3.35
82821;PMS5003;72574;46.842;-71.246;2023-12-22T05:03:44;12.5;8.8;3.6
82821;PMS5003;72574;46.842;-71.246;2023-12-22T05:06:09;12.19;9.38;5.05
82821;PMS5003;72574;46.842;-71.246;2023-12-22T05:08:35;20.6;11.2;7
82821;PMS5003;72574;46.842;-71.246;2023-12-22T05:11:02;17.85;11.75;6.5
82821;PMS5003;72574;46.842;-71.246;2023-12-22T05:13:25;23.05;14.63;6.21
82821;PMS5003;72574;46.842;-71.246;2023-12-22T05:15:51;10.2;9.25;5.3
82821;PMS5003;72574;46.842;-71.246;2023-12-22T05:18:16;11.05;10.05;6.63
82821;PMS5003;72574;46.842;-71.246;2023-12-22T05:20:42;10.53;9.63;6.16
82821;PMS5003;72574;46.842;-71.246;2023-12-22T05:23:09;9.6;9;6.45
82821;PMS5003;72574;46.842;-71.246;2023-12-22T05:25:34;9.65;8.3;5.6
82821;PMS5003;72574;46.842;-71.246;2023-12-22T05:27:59;12.16;10.16;6.11
82821;PMS5003;72574;46.842;-71.246;2023-12-22T05:30:23;11.79;10.42;7.16
82821;PMS5003;72574;46.842;-71.246;2023-12-22T05:32:48;15.42;12.53;6
82821;PMS5003;72574;46.842;-71.246;2023-12-22T05:35:14;11.89;10.84;6.79
82821;PMS5003;72574;46.842;-71.246;2023-12-22T05:37:40;11.74;10.42;5.79
82821;PMS5003;72574;46.842;-71.246;2023-12-22T05:40:06;12.8;10.6;6.65
82821;PMS5003;72574;46.842;-71.246;2023-12-22T05:42:31;9.53;8.47;4
82821;PMS5003;72574;46.842;-71.246;2023-12-22T05:44:56;11;9.21;5.47
82821;PMS5003;72574;46.842;-71.246;2023-12-22T05:47:23;11.63;8.68;4
82821;PMS5003;72574;46.842;-71.246;2023-12-22T05:49:49;12.42;10.42;4.32
82821;PMS5003;72574;46.842;-71.246;2023-12-22T05:52:12;8.89;8.26;4
82821;PMS5003;72574;46.842;-71.246;2023-12-22T05:54:38;9.21;7.42;3.89
82821;PMS5003;72574;46.842;-71.246;2023-12-22T05:57:04;14.2;10.1;4.8
82821;PMS5003;72574;46.842;-71.246;2023-12-22T05:59:28;19.85;16;10.75
82821;PMS5003;72574;46.842;-71.246;2023-12-22T06:01:54;16.65;12.15;7
82821;PMS5003;72574;46.842;-71.246;2023-12-22T06:04:20;10.21;8.32;4.42
82821;PMS5003;72574;46.842;-71.246;2023-12-22T06:06:46;18.53;14.16;6.89
82821;PMS5003;72574;46.842;-71.246;2023-12-22T06:09:12;12.53;11.58;6.79
82821;PMS5003;72574;46.842;-71.246;2023-12-22T06:11:36;10.47;8.63;6
82821;PMS5003;72574;46.842;-71.246;2023-12-22T06:14:02;16.4;12.8;6.2
82821;PMS5003;72574;46.842;-71.246;2023-12-22T06:16:28;9.9;9.9;4.85
82821;PMS5003;72574;46.842;-71.246;2023-12-22T06:18:54;14.16;9.89;5.47
82821;PMS5003;72574;46.842;-71.246;2023-12-22T06:21:17;14.74;12.16;6.47
82821;PMS5003;72574;46.842;-71.246;2023-12-22T06:23:44;10.74;8.68;4.74
82821;PMS5003;72574;46.842;-71.246;2023-12-22T06:26:08;14.4;10.85;5.1
82821;PMS5003;72574;46.842;-71.246;2023-12-22T06:28:35;16.6;12.3;6.45
82821;PMS5003;72574;46.842;-71.246;2023-12-22T06:31:00;13.52;12.33;5.71
82821;PMS5003;72574;46.842;-71.246;2023-12-22T06:33:27;12.42;9.95;6.95
82821;PMS5003;72574;46.842;-71.246;2023-12-22T06:35:53;13.74;11.95;6.63
82821;PMS5003;72574;46.842;-71.246;2023-12-22T06:38:18;16;13.15;6.25
82821;PMS5003;72574;46.842;-71.246;2023-12-22T06:40:41;13.5;10.45;5.05
82821;PMS5003;72574;46.842;-71.246;2023-12-22T06:43:08;23.15;16.4;9.75
82821;PMS5003;72574;46.842;-71.246;2023-12-22T06:45:40;16.76;14.43;9.57
82821;PMS5003;72574;46.842;-71.246;2023-12-22T06:48:04;18.33;14.14;8.52
82821;PMS5003;72574;46.842;-71.246;2023-12-22T06:50:31;13.15;10.8;7.7
82821;PMS5003;72574;46.842;-71.246;2023-12-22T06:52:54;15.95;13.45;7.2
82821;PMS5003;72574;46.842;-71.246;2023-12-22T06:55:20;17.2;13.35;6.65
82821;PMS5003;72574;46.842;-71.246;2023-12-22T06:57:46;15.25;12.4;5.6
82821;PMS5003;72574;46.842;-71.246;2023-12-22T07:00:12;14.37;11.58;6
82821;PMS5003;72574;46.842;-71.246;2023-12-22T07:02:36;19.76;12.14;5.05
82821;PMS5003;72574;46.842;-71.246;2023-12-22T07:05:46;6.42;6.05;3
82821;PMS5003;72574;46.842;-71.246;2023-12-22T07:07:29;12.85;11.3;4.4
82821;PMS5003;72574;46.842;-71.246;2023-12-22T07:09:54;22.95;14.4;6.15
82821;PMS5003;72574;46.842;-71.246;2023-12-22T07:12:17;13.8;10.3;4.45
82821;PMS5003;72574;46.842;-71.246;2023-12-22T07:14:43;10.5;10.5;5.9
82821;PMS5003;72574;46.842;-71.246;2023-12-22T07:17:08;21.25;13.7;6.9
82821;PMS5003;72574;46.842;-71.246;2023-12-22T07:19:35;12.38;11.48;7
82821;PMS5003;72574;46.842;-71.246;2023-12-22T07:22:00;10.6;8.85;4
82821;PMS5003;72574;46.842;-71.246;2023-12-22T07:24:25;8.3;6.1;4
82821;PMS5003;72574;46.842;-71.246;2023-12-22T07:26:51;15.15;11.55;7.15
82821;PMS5003;72574;46.842;-71.246;2023-12-22T07:29:18;13.65;11.5;6.2
82821;PMS5003;72574;46.842;-71.246;2023-12-22T07:31:41;12.35;11.05;4.75
82821;PMS5003;72574;46.842;-71.246;2023-12-22T07:34:07;15.85;13.2;6.55
82821;PMS5003;72574;46.842;-71.246;2023-12-22T07:36:33;12.33;10.76;5.48
82821;PMS5003;72574;46.842;-71.246;2023-12-22T07:39:00;11.35;9.25;4.75
82821;PMS5003;72574;46.842;-71.246;2023-12-22T07:41:23;20.6;14.65;7.7
82821;PMS5003;72574;46.842;-71.246;2023-12-22T07:43:49;21.3;15.75;8.4
82821;PMS5003;72574;46.842;-71.246;2023-12-22T07:46:16;16;13;7.95
82821;PMS5003;72574;46.842;-71.246;2023-12-22T07:48:40;19.45;14.85;7.8
82821;PMS5003;72574;46.842;-71.246;2023-12-22T07:51:05;25;14.7;8.2
82821;PMS5003;72574;46.842;-71.246;2023-12-22T07:53:31;17.76;16.48;8.71
82821;PMS5003;72574;46.842;-71.246;2023-12-22T07:55:56;23.1;16.4;9.35
82821;PMS5003;72574;46.842;-71.246;2023-12-22T07:58:21;14.8;14.8;8.3
82821;PMS5003;72574;46.842;-71.246;2023-12-22T08:00:47;26.25;16.9;6.85
82821;PMS5003;72574;46.842;-71.246;2023-12-22T08:03:12;17.1;15.85;7.15
82821;PMS5003;72574;46.842;-71.246;2023-12-22T08:05:37;20.5;15.3;7.7
82821;PMS5003;72574;46.842;-71.246;2023-12-22T08:08:04;19.2;15.85;7.15
82821;PMS5003;72574;46.842;-71.246;2023-12-22T08:10:31;12.48;11.86;6.62
82821;PMS5003;72574;46.842;-71.246;2023-12-22T08:12:55;18.5;15.2;6.65
82821;PMS5003;72574;46.842;-71.246;2023-12-22T08:15:21;8.35;7.15;4.75
82821;PMS5003;72574;46.842;-71.246;2023-12-22T08:17:47;14.89;11.37;6.32
82821;PMS5003;72574;46.842;-71.246;2023-12-22T08:20:11;14.15;10.7;4.2
82821;PMS5003;72574;46.842;-71.246;2023-12-22T08:22:37;13.9;11.95;5.3
82821;PMS5003;72574;46.842;-71.246;2023-12-22T08:25:00;16.25;13.5;9.15
82821;PMS5003;72574;46.842;-71.246;2023-12-22T08:27:27;12.24;11.81;6
82821;PMS5003;72574;46.842;-71.246;2023-12-22T08:29:53;20.42;14.26;7.79
82821;PMS5003;72574;46.842;-71.246;2023-12-22T08:32:19;13.3;11.3;6.4
82821;PMS5003;72574;46.842;-71.246;2023-12-22T08:34:43;10.2;8.6;4.5
82821;PMS5003;72574;46.842;-71.246;2023-12-22T08:37:09;19.4;17.25;7
82821;PMS5003;72574;46.842;-71.246;2023-12-22T08:39:35;13.65;11.75;6.1
82821;PMS5003;72574;46.842;-71.246;2023-12-22T08:42:01;19.5;11.7;6.2
82821;PMS5003;72574;46.842;-71.246;2023-12-22T08:44:26;16.67;10.62;5.9
82821;PMS5003;72574;46.842;-71.246;2023-12-22T08:46:50;17.75;15.35;9
82821;PMS5003;72574;46.842;-71.246;2023-12-22T08:49:16;19.35;13.45;6.55
82821;PMS5003;72574;46.842;-71.246;2023-12-22T08:51:42;20.45;15.3;7.8
82821;PMS5003;72574;46.842;-71.246;2023-12-22T08:54:07;15.4;13.55;8.25
82821;PMS5003;72574;46.842;-71.246;2023-12-22T08:56:33;13.7;12.2;6.9
82821;PMS5003;72574;46.842;-71.246;2023-12-22T08:58:57;26.15;18.7;9.35
82821;PMS5003;72574;46.842;-71.246;2023-12-22T09:15:56;20.43;16.33;10.05
82821;PMS5003;72574;46.842;-71.246;2023-12-22T09:16:23;18.33;15.33;6.67
82821;PMS5003;72574;46.842;-71.246;2023-12-22T09:16:37;25.33;18.62;8.9
82821;PMS5003;72574;46.842;-71.246;2023-12-22T09:16:54;14.95;12.9;7.1
82821;PMS5003;72574;46.842;-71.246;2023-12-22T09:17:19;13.19;9.95;5.05
82821;PMS5003;72574;46.842;-71.246;2023-12-22T09:17:35;14.05;12.24;6.81
82821;PMS5003;72574;46.842;-71.246;2023-12-22T09:17:56;21.9;13.75;7.1
82821;PMS5003;72574;46.842;-71.246;2023-12-22T09:20:20;15.1;11;6.6
82821;PMS5003;72574;46.842;-71.246;2023-12-22T09:22:46;14.85;10.8;6.8
82821;PMS5003;72574;46.842;-71.246;2023-12-22T09:25:13;11.95;10.9;4.6
82821;PMS5003;72574;46.842;-71.246;2023-12-22T09:27:38;16.5;10.8;4.4
82821;PMS5003;72574;46.842;-71.246;2023-12-22T09:30:02;13.2;12.65;6.4
82821;PMS5003;72574;46.842;-71.246;2023-12-22T09:32:30;14.7;12.15;5.6
82821;PMS5003;72574;46.842;-71.246;2023-12-22T09:34:56;10.1;9.52;6.52
82821;PMS5003;72574;46.842;-71.246;2023-12-22T09:37:19;15.3;10.95;5.4
82821;PMS5003;72574;46.842;-71.246;2023-12-22T09:39:44;15.2;9.7;5.4
82821;PMS5003;72574;46.842;-71.246;2023-12-22T09:42:11;10.8;8.2;3.85
82821;PMS5003;72574;46.842;-71.246;2023-12-22T09:44:34;11.6;7.9;5
82821;PMS5003;72574;46.842;-71.246;2023-12-22T09:47:03;14.2;10.2;5.05
82821;PMS5003;72574;46.842;-71.246;2023-12-22T09:49:25;10.3;7.8;5.3
82821;PMS5003;72574;46.842;-71.246;2023-12-22T09:51:53;11.05;9.71;5.62
82821;PMS5003;72574;46.842;-71.246;2023-12-22T09:54:19;21.1;14.75;7
82821;PMS5003;72574;46.842;-71.246;2023-12-22T09:56:42;13.95;12.2;7
82821;PMS5003;72574;46.842;-71.246;2023-12-22T09:59:07;10.65;8.9;5.1
82821;PMS5003;72574;46.842;-71.246;2023-12-22T10:01:32;14.1;11.1;6.25
82821;PMS5003;72574;46.842;-71.246;2023-12-22T10:03:57;10.68;7.21;6
82821;PMS5003;72574;46.842;-71.246;2023-12-22T10:06:24;11.9;8.6;4
82821;PMS5003;72574;46.842;-71.246;2023-12-22T10:08:50;16.43;6.57;3.9
82821;PMS5003;72574;46.842;-71.246;2023-12-22T10:11:16;15.55;9.4;5.6
82821;PMS5003;72574;46.842;-71.246;2023-12-22T10:13:42;7.7;6.6;4
82821;PMS5003;72574;46.842;-71.246;2023-12-22T10:16:05;11.4;8.85;4.45
82821;PMS5003;72574;46.842;-71.246;2023-12-22T10:18:32;13.75;9.2;5.6
82821;PMS5003;72574;46.842;-71.246;2023-12-22T10:20:58;12.8;9.65;5.65
82821;PMS5003;72574;46.842;-71.246;2023-12-22T10:23:21;7.75;5.75;3.1
82821;PMS5003;72574;46.842;-71.246;2023-12-22T10:25:48;7;7;3.52
82821;PMS5003;72574;46.842;-71.246;2023-12-22T10:28:14;6.65;6.65;3.9
82821;PMS5003;72574;46.842;-71.246;2023-12-22T10:30:40;14.35;9.6;4
82821;PMS5003;72574;46.842;-71.246;2023-12-22T10:33:06;10.2;7.7;3.9
82821;PMS5003;72574;46.842;-71.246;2023-12-22T10:35:30;8.75;7.3;3.8
82821;PMS5003;72574;46.842;-71.246;2023-12-22T10:37:54;8.2;5.5;3
82821;PMS5003;72574;46.842;-71.246;2023-12-22T10:40:21;8;5.7;3.65
82821;PMS5003;72574;46.842;-71.246;2023-12-22T10:42:48;3.38;3.29;1.86
82821;PMS5003;72574;46.842;-71.246;2023-12-22T10:45:12;10.5;7;4
82821;PMS5003;72574;46.842;-71.246;2023-12-22T10:47:38;6.5;4.2;3
82821;PMS5003;72574;46.842;-71.246;2023-12-22T10:50:02;6.4;6.4;3.8
82821;PMS5003;72574;46.842;-71.246;2023-12-22T10:52:29;14.85;8.3;3.8
82821;PMS5003;72574;46.842;-71.246;2023-12-22T10:54:53;6.6;4.8;2
82821;PMS5003;72574;46.842;-71.246;2023-12-22T10:57:18;9.25;7;5.3
82821;PMS5003;72574;46.842;-71.246;2023-12-22T10:59:46;8.76;5.19;3.14
82821;PMS5003;72574;46.842;-71.246;2023-12-22T11:02:10;5.6;5.3;2.3
82821;PMS5003;72574;46.842;-71.246;2023-12-22T11:04:36;7.85;6.25;3
82821;PMS5003;72574;46.842;-71.246;2023-12-22T11:06:59;8.95;7.6;4.5
82821;PMS5003;72574;46.842;-71.246;2023-12-22T11:09:29;6.6;5.5;1.4
82821;PMS5003;72574;46.842;-71.246;2023-12-22T11:11:52;9.38;5.9;3
82821;PMS5003;72574;46.842;-71.246;2023-12-22T11:14:17;5.8;5.6;3
82821;PMS5003;72574;46.842;-71.246;2023-12-22T11:16:44;7.19;6.24;3.24
82821;PMS5003;72574;46.842;-71.246;2023-12-22T11:19:08;8.75;5.75;2.6
82821;PMS5003;72574;46.842;-71.246;2023-12-22T11:21:35;4.6;3.55;1.8
82821;PMS5003;72574;46.842;-71.246;2023-12-22T11:23:59;5.75;4;3
82821;PMS5003;72574;46.842;-71.246;2023-12-22T11:26:25;7;5.5;3.5
82821;PMS5003;72574;46.842;-71.246;2023-12-22T11:28:50;8.25;6.35;3
82821;PMS5003;72574;46.842;-71.246;2023-12-22T11:31:16;6.35;5.45;3
82821;PMS5003;72574;46.842;-71.246;2023-12-22T11:33:43;6.43;4.86;1.38
82821;PMS5003;72574;46.842;-71.246;2023-12-22T11:36:07;5.7;5.25;1.95
82821;PMS5003;72574;46.842;-71.246;2023-12-22T11:38:32;6;6;1.2
82821;PMS5003;72574;46.842;-71.246;2023-12-22T11:40:58;5.25;4.1;3.1
82821;PMS5003;72574;46.842;-71.246;2023-12-22T11:43:23;16.3;13.6;9.65
82821;PMS5003;72574;46.842;-71.246;2023-12-22T11:45:48;10.15;9.1;6
82821;PMS5003;72574;46.842;-71.246;2023-12-22T11:48:13;10.65;6.7;3.7
82821;PMS5003;72574;46.842;-71.246;2023-12-22T11:50:40;4.67;4.67;4.67
82821;PMS5003;72574;46.842;-71.246;2023-12-22T11:53:22;6.75;6.3;3.25
82821;PMS5003;72574;46.842;-71.246;2023-12-22T11:55:57;13.11;7.74;4.26
82821;PMS5003;72574;46.842;-71.246;2023-12-22T11:57:54;7;6.8;3.2
82821;PMS5003;72574;46.842;-71.246;2023-12-22T12:00:38;15.5;9.75;5.7
82821;PMS5003;72574;46.842;-71.246;2023-12-22T12:02:53;9.35;7.8;5.3
82821;PMS5003;72574;46.842;-71.246;2023-12-22T12:05:12;7.4;6;3.05
82821;PMS5003;72574;46.842;-71.246;2023-12-22T12:07:45;7.57;6.43;3.62
82821;PMS5003;72574;46.842;-71.246;2023-12-22T12:10:04;9.65;9.15;4.8
82821;PMS5003;72574;46.842;-71.246;2023-12-22T12:12:27;6.65;4.3;3
82821;PMS5003;72574;46.842;-71.246;2023-12-22T12:14:55;10.1;6.1;3
82821;PMS5003;72574;46.842;-71.246;2023-12-22T12:17:19;10.1;6.1;3.25
82821;PMS5003;72574;46.842;-71.246;2023-12-22T12:19:44;9.7;8;6
82821;PMS5003;72574;46.842;-71.246;2023-12-22T12:22:11;7.85;7.45;4
82821;PMS5003;72574;46.842;-71.246;2023-12-22T12:24:36;20.67;10.57;5.29
82821;PMS5003;72574;46.842;-71.246;2023-12-22T12:27:03;12.8;7.8;3.5
82821;PMS5003;72574;46.842;-71.246;2023-12-22T12:29:25;8.25;6.6;3
82821;PMS5003;72574;46.842;-71.246;2023-12-22T12:31:51;6.45;6.1;3.9
82821;PMS5003;72574;46.842;-71.246;2023-12-22T12:34:17;11.3;8.3;3.4
82821;PMS5003;72574;46.842;-71.246;2023-12-22T12:36:41;11.9;7.1;3.4
82821;PMS5003;72574;46.842;-71.246;2023-12-22T12:39:08;12.35;9.05;6
82821;PMS5003;72574;46.842;-71.246;2023-12-22T12:41:36;13;11.33;5.81
82821;PMS5003;72574;46.842;-71.246;2023-12-22T12:43:59;14.25;10.7;5.9
82821;PMS5003;72574;46.842;-71.246;2023-12-22T12:46:24;10.35;8.9;3.8
82821;PMS5003;72574;46.842;-71.246;2023-12-22T12:49:02;14.65;10.4;6.35
82821;PMS5003;72574;46.842;-71.246;2023-12-22T12:51:15;11;8.35;4.7
82821;PMS5003;72574;46.842;-71.246;2023-12-22T12:53:40;14.65;11.6;8
82821;PMS5003;72574;46.842;-71.246;2023-12-22T12:56:06;14;11;6
82821;PMS5003;72574;46.842;-71.246;2023-12-22T12:58:32;10.95;8.71;5.62
82821;PMS5003;72574;46.842;-71.246;2023-12-22T13:01:03;12.3;10.9;5.4
82821;PMS5003;72574;46.842;-71.246;2023-12-22T13:03:21;11.6;7.7;5
82821;PMS5003;72574;46.842;-71.246;2023-12-22T13:05:47;15.45;11.2;5.6
82821;PMS5003;72574;46.842;-71.246;2023-12-22T13:08:12;12.45;11.2;5.55
82821;PMS5003;72574;46.842;-71.246;2023-12-22T13:10:37;15.35;12.5;5
82821;PMS5003;72574;46.842;-71.246;2023-12-22T13:13:03;17.8;11.4;4.75
82821;PMS5003;72574;46.842;-71.246;2023-12-22T13:15:29;12.38;10.52;3.95
82821;PMS5003;72574;46.842;-71.246;2023-12-22T13:17:56;12.3;9.65;6
82821;PMS5003;72574;46.842;-71.246;2023-12-22T13:20:20;12.8;9.35;4
82821;PMS5003;72574;46.842;-71.246;2023-12-22T13:22:47;9;8;4.4
82821;PMS5003;72574;46.842;-71.246;2023-12-22T13:25:12;8.32;7.37;3.37
82821;PMS5003;72574;46.842;-71.246;2023-12-22T13:27:44;7.74;6.11;3.16
82821;PMS5003;72574;46.842;-71.246;2023-12-22T13:30:02;6.63;5.47;3.37
82821;PMS5003;72574;46.842;-71.246;2023-12-22T13:32:29;7.43;5.62;2.9
82821;PMS5003;72574;46.842;-71.246;2023-12-22T13:34:53;12.05;7.2;3
82821;PMS5003;72574;46.842;-71.246;2023-12-22T13:37:18;9.65;8.6;3.75
82821;PMS5003;72574;46.842;-71.246;2023-12-22T13:39:42;17.9;10.4;5.4
82821;PMS5003;72574;46.842;-71.246;2023-12-22T13:42:14;10.76;7;3.67
82821;PMS5003;72574;46.842;-71.246;2023-12-22T13:44:34;9.8;6.95;3.3
82821;PMS5003;72574;46.842;-71.246;2023-12-22T13:47:06;5.9;4.95;2.52
82821;PMS5003;72574;46.842;-71.246;2023-12-22T13:49:33;9.81;8.38;5.14
82821;PMS5003;72574;46.842;-71.246;2023-12-22T13:51:58;9.85;8.2;5.5
82821;PMS5003;72574;46.842;-71.246;2023-12-22T13:54:23;15.11;9.06;4.94
82821;PMS5003;72574;46.842;-71.246;2023-12-22T13:56:47;8.75;7.3;4
82821;PMS5003;72574;46.842;-71.246;2023-12-22T13:59:14;7.43;5.9;3.38
82821;PMS5003;72574;46.842;-71.246;2023-12-22T14:01:38;5.5;5.4;3.1
82821;PMS5003;72574;46.842;-71.246;2023-12-22T14:04:04;6.36;6;4
82821;PMS5003;72574;46.842;-71.246;2023-12-22T14:06:30;8.1;6.1;3.1